PWSweather.com
Personal Weather Stations
Station Observations
ALOHA852
Aloha, OR

Aloha, OR

Lat: 45.476667, Lon: -122.894722

Elevation: 278

Station Type: Ambient Weather

Latest ConditionsUpdated 12:27:00 AM PDT Monday, Sep 1, 2014
Currently Today's Max Today's Min Today's Average
Temperature 59.0°F15.0°C 60.3°F15.7°C 59.0°F15.0°C 59.7°F15.4°C
Dew Point 54.8°F12.7°C 55.2°F12.9°C 54.4°F12.4°C 54.9°F12.7°C
Winds Calm Calm 1.6 mph N2.6 kmh N - 0.8 mph 1.3 kmh
Wind Gusts -- 2.2 mph3.5 kmh - -
Humidity 86% 86% 82% 84%
Pressure 29.67 in1004.7 mb 29.67 in1004.7 mb 29.66 in1004.4 mb -
Hour Temp Dew Point Humidity Winds Wind Gusts Pressure Precip Precip Rate Daily Precip Total
12:27 AM 59.0°F15.0°C 54.8°F12.7°C 86% Calm Calm -- 29.67 in1004.7 mb 0.00 in0.0 mm 0.00 in/hr0.0 mm/hr 0.00 in0.0 mm
12:26 AM 59.2°F15.1°C 55.0°F12.8°C 86% Calm Calm -- 29.67 in1004.7 mb 0.00 in0.0 mm 0.00 in/hr0.0 mm/hr 0.00 in0.0 mm
12:25 AM 59.2°F15.1°C 55.0°F12.8°C 86% Calm Calm -- 29.67 in1004.7 mb 0.00 in0.0 mm 0.00 in/hr0.0 mm/hr 0.00 in0.0 mm
12:24 AM 59.2°F15.1°C 55.0°F12.8°C 86% Calm Calm -- 29.67 in1004.7 mb 0.00 in0.0 mm 0.00 in/hr0.0 mm/hr 0.00 in0.0 mm
12:23 AM 59.2°F15.1°C 55.0°F12.8°C 86% Calm Calm -- 29.67 in1004.7 mb 0.00 in0.0 mm 0.00 in/hr0.0 mm/hr 0.00 in0.0 mm
12:22 AM 59.2°F15.1°C 55.0°F12.8°C 86% Calm Calm -- 29.67 in1004.7 mb 0.00 in0.0 mm 0.00 in/hr0.0 mm/hr 0.00 in0.0 mm
12:21 AM 59.2°F15.1°C 55.0°F12.8°C 86% Calm Calm -- 29.67 in1004.7 mb 0.00 in0.0 mm 0.00 in/hr0.0 mm/hr 0.00 in0.0 mm
12:20 AM 59.0°F15.0°C 54.8°F12.7°C 86% Calm Calm -- 29.67 in1004.7 mb 0.00 in0.0 mm 0.00 in/hr0.0 mm/hr 0.00 in0.0 mm
12:19 AM 59.2°F15.1°C 54.7°F12.6°C 85% Calm Calm 0.7 mph1.1 kmh 29.67 in1004.7 mb 0.00 in0.0 mm 0.00 in/hr0.0 mm/hr 0.00 in0.0 mm
12:18 AM 59.5°F15.3°C 55.0°F12.8°C 85% 0.2 mph N0.3 kmh N 2.2 mph3.5 kmh 29.67 in1004.7 mb 0.00 in0.0 mm 0.00 in/hr0.0 mm/hr 0.00 in0.0 mm
12:17 AM 59.5°F15.3°C 55.0°F12.8°C 85% 0.4 mph N0.6 kmh N 2.2 mph3.5 kmh 29.67 in1004.7 mb 0.00 in0.0 mm 0.00 in/hr0.0 mm/hr 0.00 in0.0 mm
12:16 AM 59.5°F15.3°C 54.7°F12.6°C 84% 0.6 mph N1.0 kmh N 2.2 mph3.5 kmh 29.67 in1004.7 mb 0.00 in0.0 mm 0.00 in/hr0.0 mm/hr 0.00 in0.0 mm
12:15 AM 59.5°F15.3°C 54.7°F12.6°C 84% 0.8 mph N1.3 kmh N 2.2 mph3.5 kmh 29.67 in1004.7 mb 0.00 in0.0 mm 0.00 in/hr0.0 mm/hr 0.00 in0.0 mm
12:14 AM 59.5°F15.3°C 54.4°F12.4°C 83% 0.9 mph N1.4 kmh N 2.2 mph3.5 kmh 29.67 in1004.7 mb 0.00 in0.0 mm 0.00 in/hr0.0 mm/hr 0.00 in0.0 mm
12:13 AM 59.7°F15.4°C 54.6°F12.6°C 83% 1.1 mph N1.8 kmh N 2.2 mph3.5 kmh 29.67 in1004.7 mb 0.00 in0.0 mm 0.00 in/hr0.0 mm/hr 0.00 in0.0 mm
12:12 AM 59.5°F15.3°C 54.4°F12.4°C 83% 1.2 mph N1.9 kmh N 2.2 mph3.5 kmh 29.66 in1004.4 mb 0.00 in0.0 mm 0.00 in/hr0.0 mm/hr 0.00 in0.0 mm
12:11 AM 59.9°F15.5°C 55.1°F12.8°C 84% 1.4 mph N2.3 kmh N 2.2 mph3.5 kmh 29.67 in1004.7 mb 0.00 in0.0 mm 0.00 in/hr0.0 mm/hr 0.00 in0.0 mm
12:10 AM 60.1°F15.6°C 55.2°F12.9°C 84% 1.5 mph N2.4 kmh N 2.2 mph3.5 kmh 29.67 in1004.7 mb 0.00 in0.0 mm 0.00 in/hr0.0 mm/hr 0.00 in0.0 mm
12:09 AM 59.9°F15.5°C 55.1°F12.8°C 84% 1.6 mph N2.6 kmh N 2.2 mph3.5 kmh 29.67 in1004.7 mb 0.00 in0.0 mm 0.00 in/hr0.0 mm/hr 0.00 in0.0 mm
12:08 AM 60.1°F15.6°C 55.2°F12.9°C 84% 1.5 mph N2.4 kmh N 2.2 mph3.5 kmh 29.67 in1004.7 mb 0.00 in0.0 mm 0.00 in/hr0.0 mm/hr 0.00 in0.0 mm
12:07 AM 60.1°F15.6°C 55.2°F12.9°C 84% 1.4 mph N2.3 kmh N 1.6 mph2.6 kmh 29.67 in1004.7 mb 0.00 in0.0 mm 0.00 in/hr0.0 mm/hr 0.00 in0.0 mm
12:06 AM 59.9°F15.5°C 54.7°F12.6°C 83% 1.4 mph N2.3 kmh N 1.6 mph2.6 kmh 29.67 in1004.7 mb 0.00 in0.0 mm 0.00 in/hr0.0 mm/hr 0.00 in0.0 mm
12:05 AM 60.1°F15.6°C 54.9°F12.7°C 83% 1.4 mph N2.3 kmh N 1.6 mph2.6 kmh 29.67 in1004.7 mb 0.00 in0.0 mm 0.00 in/hr0.0 mm/hr 0.00 in0.0 mm
12:04 AM 60.1°F15.6°C 54.9°F12.7°C 83% 1.4 mph N2.3 kmh N 1.6 mph2.6 kmh 29.67 in1004.7 mb 0.00 in0.0 mm 0.00 in/hr0.0 mm/hr 0.00 in0.0 mm
12:03 AM 60.1°F15.6°C 54.9°F12.7°C 83% 1.3 mph N2.1 kmh N 1.6 mph2.6 kmh 29.67 in1004.7 mb 0.00 in0.0 mm 0.00 in/hr0.0 mm/hr 0.00 in0.0 mm
12:02 AM 60.3°F15.7°C 55.1°F12.8°C 83% 1.3 mph N2.1 kmh N 1.6 mph2.6 kmh 29.67 in1004.7 mb 0.00 in0.0 mm 0.00 in/hr0.0 mm/hr 0.00 in0.0 mm
12:01 AM 60.3°F15.7°C 55.1°F12.8°C 83% 1.3 mph N2.1 kmh N 1.6 mph2.6 kmh 29.67 in1004.7 mb 0.00 in0.0 mm 0.00 in/hr0.0 mm/hr 0.00 in0.0 mm
12:00 AM 60.3°F15.7°C 54.8°F12.7°C 82% 1.3 mph N2.1 kmh N 1.6 mph2.6 kmh 29.66 in1004.4 mb 0.00 in0.0 mm 0.00 in/hr0.0 mm/hr 0.00 in0.0 mm